createdAt,value
2022-09-24T00:02:13.919Z,2.10
2022-09-24T00:16:13.948Z,1.90
2022-09-24T00:30:13.875Z,1.60
2022-09-24T00:44:13.907Z,3.10
2022-09-24T00:58:13.898Z,1.70
2022-09-24T01:12:14.079Z,1.50
2022-09-24T01:26:14.108Z,1.70
2022-09-24T01:40:14.328Z,1.60
2022-09-24T01:54:14.179Z,1.50
2022-09-24T02:08:14.280Z,1.80
2022-09-24T02:22:14.327Z,1.50
2022-09-24T02:36:14.310Z,1.30
2022-09-24T02:50:14.298Z,1.60
2022-09-24T03:04:14.265Z,0.90
2022-09-24T03:18:14.323Z,1.05
2022-09-24T03:32:14.267Z,1.00
2022-09-24T03:46:14.371Z,0.95
2022-09-24T04:00:14.383Z,0.80
2022-09-24T04:14:14.383Z,0.80
2022-09-24T04:28:14.420Z,0.80
2022-09-24T04:42:14.408Z,1.00
2022-09-24T04:56:14.420Z,1.00
2022-09-24T05:11:14.581Z,1.05
2022-09-24T05:26:14.589Z,1.70
2022-09-24T05:41:14.613Z,0.80
2022-09-24T05:56:14.656Z,7.20
2022-09-24T06:12:14.642Z,5.70
2022-09-24T06:27:14.635Z,5.40
2022-09-24T06:42:14.701Z,4.50
2022-09-24T06:57:14.736Z,3.40
2022-09-24T07:12:14.752Z,5.05
2022-09-24T07:28:14.771Z,3.70
2022-09-24T07:44:14.793Z,3.20
2022-09-24T07:59:14.781Z,3.40
2022-09-24T08:15:14.792Z,2.90
2022-09-24T08:31:14.874Z,2.30
2022-09-24T08:47:14.811Z,2.60
2022-09-24T09:03:14.945Z,1.90
2022-09-24T09:18:14.870Z,2.30
2022-09-24T09:34:14.851Z,3.10
2022-09-24T09:49:14.883Z,3.00
2022-09-24T10:04:14.916Z,3.10
2022-09-24T10:19:14.889Z,4.30
2022-09-24T10:34:14.894Z,12.60
2022-09-24T10:49:14.923Z,10.80
2022-09-24T11:04:14.915Z,11.70
2022-09-24T11:19:14.945Z,11.20
2022-09-24T11:34:14.923Z,10.80
2022-09-24T11:49:14.951Z,9.75
2022-09-24T12:04:15.018Z,8.50
2022-09-24T12:19:15.015Z,9.20
2022-09-24T12:34:15.063Z,8.70
2022-09-24T12:50:15.061Z,20.80
2022-09-24T13:06:15.187Z,12.10
2022-09-24T13:22:15.153Z,19.70
2022-09-24T13:38:15.149Z,20.90
2022-09-24T13:54:15.194Z,13.20
2022-09-24T14:09:15.183Z,18.20
2022-09-24T14:25:15.385Z,18.30
2022-09-24T14:41:15.442Z,23.20
2022-09-24T14:56:15.459Z,18.80
2022-09-24T15:12:15.506Z,14.60
2022-09-24T15:27:15.485Z,11.80
2022-09-24T15:43:15.497Z,16.70
2022-09-24T15:59:15.548Z,9.10
2022-09-24T16:15:15.617Z,7.70
2022-09-24T16:30:15.757Z,9.60
2022-09-24T16:46:20.360Z,7.30
2022-09-24T17:02:15.928Z,5.00
2022-09-24T17:18:15.901Z,5.00
2022-09-24T17:33:41.683Z,5.60
2022-09-24T17:48:15.876Z,4.75
2022-09-24T18:02:15.944Z,10.70
2022-09-24T18:16:16.917Z,9.20
2022-09-24T18:30:15.936Z,8.75
2022-09-24T18:44:15.941Z,9.15
2022-09-24T18:58:15.998Z,6.70
2022-09-24T19:12:16.891Z,7.10
2022-09-24T19:26:15.979Z,8.50
2022-09-24T19:40:16.909Z,7.30
2022-09-24T19:54:16.932Z,6.80
2022-09-24T20:08:16.163Z,7.90
2022-09-24T20:22:17.451Z,8.10
2022-09-24T20:36:19.772Z,6.70
2022-09-24T20:50:16.342Z,8.50
2022-09-24T21:04:16.249Z,9.90
2022-09-24T21:18:22.041Z,5.90
2022-09-24T21:32:16.294Z,5.80
2022-09-24T21:46:16.338Z,5.10
2022-09-24T22:00:18.281Z,5.60
2022-09-24T22:14:16.568Z,5.10
2022-09-24T22:28:20.003Z,3.70
2022-09-24T22:42:16.949Z,3.40
2022-09-24T22:56:17.369Z,3.40
2022-09-24T23:10:17.164Z,2.50
2022-09-24T23:24:17.155Z,3.30
2022-09-24T23:38:17.170Z,2.80
2022-09-24T23:52:17.199Z,3.30
